Blairsville, Illinois
Current Conditions -  °F | °C
As of 12:47 PM on Thursday 30 Oct 2014 (Local Time) from KMWA Reporting Station
Broken Clouds Broken Clouds  
Wind Chill: 15°   Ceiling: 10000
Heat Index: 15°   Visibility: 20mi
Dew Point:   Wind: 9mph
Humidity: 48%   Direction: 210°SSW
Pressure: 30.13"   Gusts: NA
Location:  37.7927°N, 89.0997°W
Report Text: KMWA 301747Z 21008KT 20SM BKN100 15/04 A3013
Loading
Personal Weather Stations






























Interactive Weather Map
Tropical Storm Tracking
New forecast layout! Learn more

10-Day Weather Forecast

Advertisements
Track Severe Weather on mobile